Time;durP1;ratioP1;P1;durP2;ratioP2;P2;SDS_P1;SDS_P2;PMS_P1;PMS_P2;Temp;Humidity;BMP_temperature;BMP_pressure;BME280_temperature;BME280_humidity;BME280_pressure;Samples;Min_cycle;Max_cycle;Signal;HPM_P1;HPM_P2
2023/05/19 00:01:04;;;;;;;;;;;22.80;51.30;;;;;;1549520;75;733;-55
2023/05/19 00:03:07;;;;;;;;;;;22.70;51.30;;;;;;1547287;75;712;-57
2023/05/19 00:05:10;;;;;;;;;;;22.70;51.40;;;;;;1545238;75;771;-59
2023/05/19 00:07:12;;;;;;;;;;;22.70;51.40;;;;;;1552385;75;1138;-55
2023/05/19 00:09:14;;;;;;;;;;;22.70;51.40;;;;;;1548032;75;680;-57
2023/05/19 00:11:16;;;;;;;;;;;22.70;51.50;;;;;;1550647;75;785;-57
2023/05/19 00:13:18;;;;;;;;;;;22.80;51.40;;;;;;1548919;75;1557;-57
2023/05/19 00:15:20;;;;;;;;;;;22.80;51.40;;;;;;1542087;75;667;-55
2023/05/19 00:17:22;;;;;;;;;;;22.80;51.50;;;;;;1541038;76;1942;-57
2023/05/19 00:19:24;;;;;;;;;;;22.70;51.50;;;;;;1552915;75;719;-57
2023/05/19 00:21:26;;;;;;;;;;;22.80;51.50;;;;;;1554120;75;704;-56
2023/05/19 00:23:28;;;;;;;;;;;22.70;51.50;;;;;;1545998;75;794;-56
2023/05/19 00:25:30;;;;;;;;;;;22.70;51.50;;;;;;1550388;75;1076;-55
2023/05/19 00:27:32;;;;;;;;;;;22.80;51.50;;;;;;1483002;78;1287;-56
2023/05/19 00:29:34;;;;;;;;;;;22.70;51.50;;;;;;1498760;77;659;-58
2023/05/19 00:31:35;;;;;;;;;;;22.70;51.50;;;;;;1501098;77;714;-57
2023/05/19 00:33:37;;;;;;;;;;;22.80;51.50;;;;;;1505406;77;703;-57
2023/05/19 00:35:39;;;;;;;;;;;22.70;51.50;;;;;;1497895;77;704;-57
2023/05/19 00:37:41;;;;;;;;;;;22.80;51.50;;;;;;1502537;77;1917;-55
2023/05/19 00:39:43;;;;;;;;;;;22.70;51.40;;;;;;1496597;78;686;-57
2023/05/19 00:41:45;;;;;;;;;;;22.80;51.30;;;;;;1500522;77;1356;-56
2023/05/19 00:43:47;;;;;;;;;;;22.90;51.30;;;;;;1516168;77;663;-57
2023/05/19 00:45:49;;;;;;;;;;;22.80;51.30;;;;;;1507548;78;710;-57
2023/05/19 00:47:50;;;;;;;;;;;22.80;51.30;;;;;;1498907;77;1226;-57
2023/05/19 00:49:52;;;;;;;;;;;22.90;51.30;;;;;;1492833;77;661;-55
2023/05/19 00:51:54;;;;;;;;;;;22.90;51.30;;;;;;1504067;78;743;-55
2023/05/19 00:53:56;;;;;;;;;;;22.90;51.20;;;;;;1507450;77;781;-57
2023/05/19 00:55:59;;;;;;;;;;;23.00;51.10;;;;;;1472708;79;1514;-55
2023/05/19 00:58:01;;;;;;;;;;;23.00;51.00;;;;;;1502091;77;1950;-57
2023/05/19 01:00:04;;;;;;;;;;;23.00;51.00;;;;;;1509309;77;636;-57
2023/05/19 01:02:06;;;;;;;;;;;22.90;51.00;;;;;;1515414;77;749;-55
2023/05/19 01:04:10;;;;;;;;;;;22.90;51.10;;;;;;1521339;77;737;-56
2023/05/19 01:06:12;;;;;;;;;;;22.90;51.20;;;;;;1503484;77;1141;-56
2023/05/19 01:08:13;;;;;;;;;;;22.90;51.20;;;;;;1518423;77;681;-56
2023/05/19 01:10:15;;;;;;;;;;;22.80;51.30;;;;;;1518777;77;1596;-56
2023/05/19 01:12:17;;;;;;;;;;;22.90;51.30;;;;;;1502254;77;696;-55
2023/05/19 01:14:19;;;;;;;;;;;22.90;51.30;;;;;;1489887;77;727;-56
2023/05/19 01:16:23;;;;;;;;;;;22.90;51.30;;;;;;1507444;77;1954;-56
2023/05/19 01:18:32;;;;;;;;;;;22.80;51.20;;;;;;1511967;77;689;-57
2023/05/19 01:20:37;;;;;;;;;;;22.80;51.20;;;;;;1503123;77;1147;-56
2023/05/19 01:22:53;;;;;;;;;;;22.80;51.10;;;;;;1514302;77;742;-57
2023/05/19 01:25:03;;;;;;;;;;;22.80;51.20;;;;;;1496176;77;1491;-57
2023/05/19 01:27:23;;;;;;;;;;;22.80;51.20;;;;;;1510436;76;1198;-55
2023/05/19 01:29:28;;;;;;;;;;;22.80;51.20;;;;;;1541062;75;680;-56
2023/05/19 01:31:29;;;;;;;;;;;22.80;51.20;;;;;;1542973;75;716;-57
2023/05/19 01:33:31;;;;;;;;;;;22.80;51.20;;;;;;1560701;75;785;-56
2023/05/19 01:35:34;;;;;;;;;;;22.80;51.20;;;;;;1549648;75;662;-55
2023/05/19 01:37:36;;;;;;;;;;;22.80;51.10;;;;;;1560654;75;1923;-57
2023/05/19 01:39:38;;;;;;;;;;;22.80;51.30;;;;;;1560310;75;693;-56
2023/05/19 01:41:40;;;;;;;;;;;22.80;51.30;;;;;;1555184;75;668;-57
2023/05/19 01:43:42;;;;;;;;;;;22.70;51.30;;;;;;1558179;74;558;-55
2023/05/19 01:45:44;;;;;;;;;;;22.80;51.30;;;;;;1556666;75;679;-57
2023/05/19 01:47:47;;;;;;;;;;;22.80;51.30;;;;;;1550656;75;1118;-56
2023/05/19 01:49:48;;;;;;;;;;;22.80;51.30;;;;;;1553032;75;648;-58
2023/05/19 01:51:50;;;;;;;;;;;22.70;51.30;;;;;;1549440;74;1351;-57
2023/05/19 01:53:52;;;;;;;;;;;22.70;51.30;;;;;;1565315;74;676;-58
2023/05/19 01:55:54;;;;;;;;;;;22.70;51.30;;;;;;1543965;75;778;-59
2023/05/19 01:58:04;;;;;;;;;;;22.80;51.40;;;;;;1552088;74;1944;-56
2023/05/19 02:00:14;;;;;;;;;;;22.80;51.30;;;;;;1544976;75;782;-56
2023/05/19 02:02:17;;;;;;;;;;;22.80;51.30;;;;;;1546861;75;631;-59
2023/05/19 02:04:31;;;;;;;;;;;22.80;51.30;;;;;;1549738;75;1698;-55
2023/05/19 02:06:34;;;;;;;;;;;22.70;51.60;;;;;;1545333;75;1468;-58
2023/05/19 02:08:38;;;;;;;;;;;22.70;51.50;;;;;;1547519;75;732;-56
2023/05/19 02:10:42;;;;;;;;;;;22.70;51.50;;;;;;1554943;75;593;-58
2023/05/19 02:12:44;;;;;;;;;;;22.70;51.40;;;;;;1558817;74;746;-58
2023/05/19 02:14:47;;;;;;;;;;;22.80;51.40;;;;;;1558093;75;739;-58
2023/05/19 02:16:49;;;;;;;;;;;22.70;51.30;;;;;;1561233;74;1951;-58
2023/05/19 02:18:52;;;;;;;;;;;22.80;51.30;;;;;;1552939;74;677;-57
2023/05/19 02:20:54;;;;;;;;;;;22.80;51.30;;;;;;1546872;75;1473;-60
2023/05/19 02:22:56;;;;;;;;;;;22.80;51.20;;;;;;1561886;74;747;-57
2023/05/19 02:24:58;;;;;;;;;;;22.90;51.30;;;;;;1545620;74;674;-59
2023/05/19 02:27:00;;;;;;;;;;;22.90;51.30;;;;;;1549042;74;1138;-58
2023/05/19 02:29:02;;;;;;;;;;;22.80;51.20;;;;;;1532013;75;688;-57
2023/05/19 02:31:07;;;;;;;;;;;22.80;51.20;;;;;;1530300;76;692;-56
2023/05/19 02:33:07;;;;;;;;;;;22.80;51.30;;;;;;1542341;75;1655;-58
2023/05/19 02:35:09;;;;;;;;;;;22.80;51.30;;;;;;1545933;76;1793;-56
2023/05/19 02:37:13;;;;;;;;;;;22.70;51.40;;;;;;1549086;75;1943;-58
2023/05/19 02:39:15;;;;;;;;;;;22.70;51.50;;;;;;1545865;75;816;-57
2023/05/19 02:41:17;;;;;;;;;;;22.70;51.50;;;;;;1542426;75;707;-56
2023/05/19 02:43:19;;;;;;;;;;;22.60;51.50;;;;;;1537279;76;671;-56
2023/05/19 02:45:21;;;;;;;;;;;22.60;51.60;;;;;;1546987;76;750;-56
2023/05/19 02:47:22;;;;;;;;;;;22.60;51.60;;;;;;1541657;76;1496;-55
2023/05/19 02:49:24;;;;;;;;;;;22.60;51.70;;;;;;1535882;75;747;-59
2023/05/19 02:51:26;;;;;;;;;;;22.60;51.70;;;;;;1541053;76;794;-58
2023/05/19 02:53:29;;;;;;;;;;;22.60;51.70;;;;;;1543814;76;716;-58
2023/05/19 02:55:31;;;;;;;;;;;22.60;51.70;;;;;;1536383;75;666;-60
2023/05/19 02:57:34;;;;;;;;;;;22.60;51.80;;;;;;1546472;75;1951;-57
2023/05/19 02:59:36;;;;;;;;;;;22.60;51.80;;;;;;1532174;75;774;-59
2023/05/19 03:01:39;;;;;;;;;;;22.50;51.80;;;;;;1539972;76;1577;-58
2023/05/19 03:03:41;;;;;;;;;;;22.60;51.80;;;;;;1545850;76;692;-58
2023/05/19 03:05:43;;;;;;;;;;;22.50;51.80;;;;;;1539792;76;676;-56
2023/05/19 03:07:45;;;;;;;;;;;22.50;51.80;;;;;;1537871;76;1114;-56
2023/05/19 03:09:47;;;;;;;;;;;22.50;51.80;;;;;;1536767;76;734;-57
2023/05/19 03:11:49;;;;;;;;;;;22.60;51.90;;;;;;1526282;75;634;-55
2023/05/19 03:13:51;;;;;;;;;;;22.50;51.90;;;;;;1528396;75;681;-58
2023/05/19 03:15:55;;;;;;;;;;;22.50;51.90;;;;;;1539880;75;1573;-57
2023/05/19 03:17:56;;;;;;;;;;;22.50;51.90;;;;;;1540387;75;1925;-55
2023/05/19 03:19:58;;;;;;;;;;;22.60;51.80;;;;;;1547331;75;832;-57
2023/05/19 03:22:00;;;;;;;;;;;22.60;51.90;;;;;;1537316;75;673;-57
2023/05/19 03:24:02;;;;;;;;;;;22.50;51.80;;;;;;1539005;75;747;-56
2023/05/19 03:26:04;;;;;;;;;;;22.50;51.80;;;;;;1544700;76;721;-57
2023/05/19 03:28:06;;;;;;;;;;;22.50;51.80;;;;;;1556728;75;1114;-55
2023/05/19 03:30:08;;;;;;;;;;;22.50;51.80;;;;;;1547890;75;1438;-60
2023/05/19 03:32:10;;;;;;;;;;;22.50;51.80;;;;;;1545221;75;701;-56
2023/05/19 03:34:12;;;;;;;;;;;22.50;51.80;;;;;;1546334;75;684;-57
2023/05/19 03:36:14;;;;;;;;;;;22.50;51.80;;;;;;1558280;75;1236;-57
2023/05/19 03:38:16;;;;;;;;;;;22.50;51.80;;;;;;1551884;75;1918;-57
2023/05/19 03:40:17;;;;;;;;;;;22.50;51.80;;;;;;1545139;75;562;-58
2023/05/19 03:42:19;;;;;;;;;;;22.50;51.80;;;;;;1554434;75;745;-57
2023/05/19 03:44:21;;;;;;;;;;;22.50;51.80;;;;;;1540510;74;1473;-57
2023/05/19 03:46:23;;;;;;;;;;;22.50;51.80;;;;;;1548861;75;1129;-58
2023/05/19 03:48:25;;;;;;;;;;;22.60;51.80;;;;;;1550000;75;756;-58
2023/05/19 03:50:27;;;;;;;;;;;22.50;51.80;;;;;;1549368;75;738;-58
2023/05/19 03:52:29;;;;;;;;;;;22.50;51.80;;;;;;1551498;75;638;-57
2023/05/19 03:54:31;;;;;;;;;;;22.50;51.80;;;;;;1531616;75;694;-58
2023/05/19 03:56:33;;;;;;;;;;;22.50;51.80;;;;;;1550684;75;1153;-58
2023/05/19 03:58:38;;;;;;;;;;;22.50;51.80;;;;;;1555933;75;1951;-58
2023/05/19 04:00:39;;;;;;;;;;;22.50;51.80;;;;;;1547769;75;1618;-56
2023/05/19 04:02:40;;;;;;;;;;;22.50;51.70;;;;;;1541218;75;694;-57
2023/05/19 04:04:42;;;;;;;;;;;22.50;51.70;;;;;;1551174;75;786;-55
2023/05/19 04:06:44;;;;;;;;;;;22.50;51.70;;;;;;1546641;75;1100;-57
2023/05/19 04:08:46;;;;;;;;;;;22.50;51.70;;;;;;1544401;75;758;-56
2023/05/19 04:10:48;;;;;;;;;;;22.50;51.70;;;;;;1551822;75;774;-57
2023/05/19 04:12:50;;;;;;;;;;;22.50;51.70;;;;;;1549613;75;1477;-58
2023/05/19 04:14:52;;;;;;;;;;;22.50;51.70;;;;;;1551331;75;685;-55
2023/05/19 04:16:54;;;;;;;;;;;22.50;51.60;;;;;;1550999;75;1139;-58
2023/05/19 04:18:56;;;;;;;;;;;22.40;51.50;;;;;;1555344;75;1925;-57
2023/05/19 04:20:58;;;;;;;;;;;22.40;51.50;;;;;;1541779;75;660;-58
2023/05/19 04:22:59;;;;;;;;;;;22.50;51.70;;;;;;1554033;75;773;-59
2023/05/19 04:25:03;;;;;;;;;;;22.50;51.60;;;;;;1551151;75;718;-59
2023/05/19 04:27:10;;;;;;;;;;;22.40;51.70;;;;;;1548682;75;1343;-57
2023/05/19 04:29:09;;;;;;;;;;;22.40;51.70;;;;;;1542479;76;1556;-58
2023/05/19 04:31:11;;;;;;;;;;;22.40;51.70;;;;;;1544227;75;677;-55
2023/05/19 04:33:13;;;;;;;;;;;22.30;51.70;;;;;;1544991;75;724;-57
2023/05/19 04:35:16;;;;;;;;;;;22.40;51.70;;;;;;1538455;75;695;-58
2023/05/19 04:37:19;;;;;;;;;;;22.40;51.60;;;;;;1542821;75;1203;-58
2023/05/19 04:39:21;;;;;;;;;;;22.60;51.60;;;;;;1540405;75;1922;-58
2023/05/19 04:41:22;;;;;;;;;;;22.50;51.50;;;;;;1544190;75;1476;-56
2023/05/19 04:43:26;;;;;;;;;;;22.50;51.60;;;;;;1550253;76;596;-56
2023/05/19 04:45:28;;;;;;;;;;;22.50;51.60;;;;;;1545451;76;804;-58
2023/05/19 04:47:29;;;;;;;;;;;22.40;51.50;;;;;;1534355;76;1110;-58
2023/05/19 04:49:31;;;;;;;;;;;22.50;51.70;;;;;;1541365;75;664;-57
2023/05/19 04:51:34;;;;;;;;;;;22.40;51.60;;;;;;1540929;75;687;-58
2023/05/19 04:53:36;;;;;;;;;;;22.50;51.70;;;;;;1523625;75;1012;-57
2023/05/19 04:55:38;;;;;;;;;;;22.40;51.50;;;;;;1535977;75;1502;-58
2023/05/19 04:57:40;;;;;;;;;;;22.40;50.50;;;;;;1537017;76;1955;-57
2023/05/19 04:59:42;;;;;;;;;;;22.40;50.30;;;;;;1541198;76;744;-55
2023/05/19 05:01:44;;;;;;;;;;;22.40;50.50;;;;;;1546577;76;670;-58
2023/05/19 05:03:46;;;;;;;;;;;22.40;50.50;;;;;;1546117;76;658;-57
2023/05/19 05:05:48;;;;;;;;;;;22.30;50.20;;;;;;1550949;75;739;-57
2023/05/19 05:07:52;;;;;;;;;;;22.30;49.80;;;;;;1534014;75;1113;-57
2023/05/19 05:09:54;;;;;;;;;;;22.30;49.70;;;;;;1540318;76;1563;-56
2023/05/19 05:11:56;;;;;;;;;;;22.20;49.40;;;;;;1531769;76;684;-58
2023/05/19 05:13:58;;;;;;;;;;;22.20;49.10;;;;;;1534711;76;767;-58
2023/05/19 05:16:00;;;;;;;;;;;22.20;49.10;;;;;;1536501;75;725;-58
2023/05/19 05:18:03;;;;;;;;;;;22.20;49.00;;;;;;1552804;76;1947;-59
2023/05/19 05:20:06;;;;;;;;;;;22.20;49.10;;;;;;1544135;76;676;-57
2023/05/19 05:22:08;;;;;;;;;;;22.10;49.00;;;;;;1544231;75;1433;-57
2023/05/19 05:24:10;;;;;;;;;;;22.20;49.00;;;;;;1543403;75;745;-59
2023/05/19 05:26:14;;;;;;;;;;;22.10;49.10;;;;;;1546016;75;1300;-59
2023/05/19 05:28:16;;;;;;;;;;;22.10;49.20;;;;;;1538161;75;1674;-57
2023/05/19 05:30:18;;;;;;;;;;;22.20;49.10;;;;;;1548896;75;731;-56
2023/05/19 05:32:20;;;;;;;;;;;22.20;49.20;;;;;;1549700;75;740;-58
2023/05/19 05:34:21;;;;;;;;;;;22.20;49.40;;;;;;1558137;75;682;-58
2023/05/19 05:36:23;;;;;;;;;;;22.20;49.20;;;;;;1544887;74;1499;-59
2023/05/19 05:38:25;;;;;;;;;;;22.20;49.20;;;;;;1547482;75;1921;-57
2023/05/19 05:40:27;;;;;;;;;;;22.20;48.80;;;;;;1552428;75;702;-58
2023/05/19 05:42:29;;;;;;;;;;;22.20;48.90;;;;;;1559884;75;684;-57
2023/05/19 05:44:33;;;;;;;;;;;22.20;49.10;;;;;;1544128;75;674;-58
2023/05/19 05:46:34;;;;;;;;;;;22.30;49.50;;;;;;1538589;75;1115;-59
2023/05/19 05:48:37;;;;;;;;;;;22.20;49.70;;;;;;1547880;75;704;-58
2023/05/19 05:50:39;;;;;;;;;;;22.30;50.00;;;;;;1543730;75;1542;-58
2023/05/19 05:52:41;;;;;;;;;;;22.20;50.00;;;;;;1541110;75;719;-57
2023/05/19 05:54:43;;;;;;;;;;;22.20;50.20;;;;;;1555200;75;687;-58
2023/05/19 05:56:45;;;;;;;;;;;22.20;50.30;;;;;;1547465;75;1094;-56
2023/05/19 05:58:48;;;;;;;;;;;22.20;50.40;;;;;;1541830;75;1913;-57
2023/05/19 06:00:50;;;;;;;;;;;22.20;50.50;;;;;;1555761;75;720;-59
2023/05/19 06:02:52;;;;;;;;;;;22.30;50.70;;;;;;1547257;75;744;-58
2023/05/19 06:04:54;;;;;;;;;;;22.20;50.50;;;;;;1548381;75;1487;-58
2023/05/19 06:06:59;;;;;;;;;;;22.20;50.50;;;;;;1558454;75;1145;-58
2023/05/19 06:08:59;;;;;;;;;;;22.20;50.60;;;;;;1537922;75;1471;-58
2023/05/19 06:11:07;;;;;;;;;;;22.20;50.60;;;;;;1552781;75;886;-56
2023/05/19 06:13:05;;;;;;;;;;;22.20;50.60;;;;;;1546621;75;1561;-58
2023/05/19 06:15:07;;;;;;;;;;;22.30;50.80;;;;;;1555455;75;673;-57
2023/05/19 06:17:09;;;;;;;;;;;22.30;50.70;;;;;;1559361;75;1097;-58
2023/05/19 06:19:11;;;;;;;;;;;22.40;50.80;;;;;;1557249;75;1904;-56
2023/05/19 06:21:13;;;;;;;;;;;22.30;50.70;;;;;;1559982;75;647;-59
2023/05/19 06:23:15;;;;;;;;;;;22.40;50.70;;;;;;1552169;75;711;-57
2023/05/19 06:25:17;;;;;;;;;;;22.30;50.70;;;;;;1550593;75;751;-57
2023/05/19 06:27:18;;;;;;;;;;;22.40;50.70;;;;;;1547949;75;1166;-57
2023/05/19 06:29:20;;;;;;;;;;;22.40;50.70;;;;;;1549433;75;1089;-56
2023/05/19 06:31:22;;;;;;;;;;;22.50;50.70;;;;;;1536639;76;681;-56
2023/05/19 06:33:24;;;;;;;;;;;22.40;50.50;;;;;;1531973;76;1474;-58
2023/05/19 06:35:26;;;;;;;;;;;22.40;50.50;;;;;;1544084;76;647;-56
2023/05/19 06:37:28;;;;;;;;;;;22.50;50.60;;;;;;1544713;76;1165;-57
2023/05/19 06:39:30;;;;;;;;;;;22.50;50.60;;;;;;1539426;75;1946;-58
2023/05/19 06:41:32;;;;;;;;;;;22.50;50.50;;;;;;1547540;76;778;-57
2023/05/19 06:43:33;;;;;;;;;;;22.50;50.50;;;;;;1547227;75;593;-55
2023/05/19 06:45:35;;;;;;;;;;;22.60;50.40;;;;;;1552433;76;708;-59
2023/05/19 06:47:39;;;;;;;;;;;22.50;50.40;;;;;;1544533;75;1630;-58
2023/05/19 06:49:41;;;;;;;;;;;22.50;50.30;;;;;;1547812;75;1591;-57
2023/05/19 06:51:43;;;;;;;;;;;22.60;50.30;;;;;;1541401;76;692;-56
2023/05/19 06:53:45;;;;;;;;;;;22.60;50.20;;;;;;1527638;76;723;-56
2023/05/19 06:55:51;;;;;;;;;;;22.60;50.20;;;;;;1528489;76;615;-57
2023/05/19 06:57:50;;;;;;;;;;;22.60;50.10;;;;;;1540965;75;1210;-57
2023/05/19 06:59:52;;;;;;;;;;;22.70;50.20;;;;;;1536302;76;1939;-59
2023/05/19 07:01:54;;;;;;;;;;;22.70;50.10;;;;;;1534498;76;1568;-58
2023/05/19 07:03:56;;;;;;;;;;;22.70;50.00;;;;;;1534487;76;674;-55
2023/05/19 07:05:58;;;;;;;;;;;22.70;49.90;;;;;;1540045;75;666;-56
2023/05/19 07:08:00;;;;;;;;;;;22.70;49.80;;;;;;1548009;75;1067;-55
2023/05/19 07:10:02;;;;;;;;;;;22.80;49.70;;;;;;1540840;75;802;-56
2023/05/19 07:12:04;;;;;;;;;;;22.80;49.70;;;;;;1539005;76;682;-56
2023/05/19 07:14:06;;;;;;;;;;;22.80;49.70;;;;;;1552148;75;709;-56
2023/05/19 07:16:08;;;;;;;;;;;22.80;49.60;;;;;;1539732;75;1483;-55
2023/05/19 07:18:10;;;;;;;;;;;22.80;49.60;;;;;;1544164;75;679;-58
2023/05/19 07:20:12;;;;;;;;;;;22.90;49.60;;;;;;1531383;76;1948;-57
2023/05/19 07:22:15;;;;;;;;;;;22.80;49.50;;;;;;1542779;75;713;-57
2023/05/19 07:24:16;;;;;;;;;;;22.90;49.60;;;;;;1543124;75;598;-57
2023/05/19 07:26:18;;;;;;;;;;;22.80;49.50;;;;;;1540148;76;1151;-57
2023/05/19 07:28:20;;;;;;;;;;;22.80;49.40;;;;;;1540171;76;718;-57
2023/05/19 07:30:22;;;;;;;;;;;22.80;49.50;;;;;;1537936;75;1385;-58
2023/05/19 07:32:24;;;;;;;;;;;22.80;49.50;;;;;;1537812;75;671;-57
2023/05/19 07:34:26;;;;;;;;;;;22.90;49.50;;;;;;1536806;76;673;-58
2023/05/19 07:36:28;;;;;;;;;;;22.80;49.40;;;;;;1543438;75;1187;-58
2023/05/19 07:38:33;;;;;;;;;;;22.90;49.50;;;;;;1548422;75;707;-55
2023/05/19 07:40:34;;;;;;;;;;;22.90;49.50;;;;;;1545665;76;1610;-58
2023/05/19 07:42:35;;;;;;;;;;;22.80;49.40;;;;;;1545584;75;676;-58
2023/05/19 07:44:37;;;;;;;;;;;22.90;49.50;;;;;;1533095;75;1619;-57
2023/05/19 07:46:40;;;;;;;;;;;22.90;49.50;;;;;;1530805;75;1134;-56
2023/05/19 07:48:42;;;;;;;;;;;22.90;49.40;;;;;;1540514;76;652;-58
2023/05/19 07:50:44;;;;;;;;;;;22.90;49.40;;;;;;1543237;75;668;-57
2023/05/19 07:52:45;;;;;;;;;;;22.90;49.50;;;;;;1544383;76;710;-56
2023/05/19 07:54:47;;;;;;;;;;;22.90;49.50;;;;;;1526361;75;715;-56
2023/05/19 07:56:49;;;;;;;;;;;22.90;49.50;;;;;;1541548;76;1468;-58
2023/05/19 07:58:51;;;;;;;;;;;22.80;49.50;;;;;;1541591;75;1923;-57
2023/05/19 08:00:53;;;;;;;;;;;22.70;49.70;;;;;;1539011;75;601;-57
2023/05/19 08:02:56;;;;;;;;;;;22.70;49.80;;;;;;1510596;76;1121;-56
2023/05/19 08:04:57;;;;;;;;;;;22.60;50.00;;;;;;1536427;76;749;-57
2023/05/19 08:06:59;;;;;;;;;;;22.60;50.10;;;;;;1548701;76;1138;-59
2023/05/19 08:09:04;;;;;;;;;;;22.60;50.20;;;;;;1545484;76;728;-56
2023/05/19 08:11:05;;;;;;;;;;;22.70;50.10;;;;;;1537461;75;1667;-55
2023/05/19 08:13:07;;;;;;;;;;;22.70;50.00;;;;;;1534444;75;645;-55
2023/05/19 08:15:10;;;;;;;;;;;22.70;49.90;;;;;;1536597;75;678;-55
2023/05/19 08:17:12;;;;;;;;;;;22.70;49.90;;;;;;1543331;76;1126;-58
2023/05/19 08:19:14;;;;;;;;;;;22.70;49.80;;;;;;1530005;75;1927;-59
2023/05/19 08:21:16;;;;;;;;;;;22.70;49.70;;;;;;1545594;76;595;-58
2023/05/19 08:23:17;;;;;;;;;;;22.80;49.70;;;;;;1543885;76;665;-57
2023/05/19 08:25:19;;;;;;;;;;;22.80;49.70;;;;;;1539840;75;1316;-58
2023/05/19 08:27:21;;;;;;;;;;;22.90;49.70;;;;;;1539923;75;1171;-58
2023/05/19 08:29:23;;;;;;;;;;;22.80;49.50;;;;;;1533764;75;1070;-58
2023/05/19 08:31:25;;;;;;;;;;;22.80;49.50;;;;;;1568281;74;709;-59
2023/05/19 08:33:27;;;;;;;;;;;22.80;49.50;;;;;;1562678;75;720;-57
2023/05/19 08:35:29;;;;;;;;;;;22.80;49.50;;;;;;1568005;74;734;-59
2023/05/19 08:37:31;;;;;;;;;;;22.80;49.40;;;;;;1566874;75;1185;-57
2023/05/19 08:39:33;;;;;;;;;;;22.90;49.60;;;;;;1556297;75;1940;-55
2023/05/19 08:41:35;;;;;;;;;;;22.80;49.40;;;;;;1565401;75;650;-57
2023/05/19 08:43:38;;;;;;;;;;;22.90;49.50;;;;;;1583771;74;748;-56
2023/05/19 08:45:45;;;;;;;;;;;22.80;49.40;;;;;;1575006;75;800;-58
2023/05/19 08:47:47;;;;;;;;;;;22.90;49.50;;;;;;1564193;74;1125;-56
2023/05/19 08:49:50;;;;;;;;;;;22.90;49.60;;;;;;1548098;75;696;-58
2023/05/19 08:51:55;;;;;;;;;;;22.90;49.50;;;;;;1546800;74;743;-57
2023/05/19 08:53:59;;;;;;;;;;;22.80;49.40;;;;;;1559766;74;1460;-56
2023/05/19 08:56:18;;;;;;;;;;;22.80;49.40;;;;;;1564040;75;747;-58
2023/05/19 08:58:20;;;;;;;;;;;22.90;49.60;;;;;;1564654;74;721;-57
2023/05/19 09:00:22;;;;;;;;;;;22.80;49.50;;;;;;1561694;74;1920;-58
2023/05/19 09:02:24;;;;;;;;;;;22.80;49.50;;;;;;1559148;74;626;-56
2023/05/19 09:04:27;;;;;;;;;;;22.90;49.70;;;;;;1560480;74;1053;-60
2023/05/19 09:06:31;;;;;;;;;;;22.80;49.50;;;;;;1569148;74;1130;-57
2023/05/19 09:08:32;;;;;;;;;;;22.90;49.70;;;;;;1562336;74;1709;-58
2023/05/19 09:10:34;;;;;;;;;;;22.80;49.50;;;;;;1566901;75;610;-57
2023/05/19 09:12:36;;;;;;;;;;;22.80;49.50;;;;;;1563133;74;699;-58
2023/05/19 09:14:38;;;;;;;;;;;22.80;49.50;;;;;;1560675;74;718;-57
2023/05/19 09:16:40;;;;;;;;;;;22.80;49.50;;;;;;1562528;74;1121;-57
2023/05/19 09:18:45;;;;;;;;;;;22.80;49.50;;;;;;1557705;75;788;-56
2023/05/19 09:20:47;;;;;;;;;;;22.80;49.50;;;;;;1557959;74;1920;-56
2023/05/19 09:22:49;;;;;;;;;;;22.80;49.50;;;;;;1558850;75;1485;-57
2023/05/19 09:24:52;;;;;;;;;;;22.80;49.50;;;;;;1565307;74;789;-58
2023/05/19 09:26:57;;;;;;;;;;;22.70;49.50;;;;;;1560534;75;1170;-57
2023/05/19 09:28:59;;;;;;;;;;;22.70;49.60;;;;;;1565672;74;686;-57
2023/05/19 09:31:02;;;;;;;;;;;22.70;49.70;;;;;;1546144;75;1088;-57
2023/05/19 09:33:08;;;;;;;;;;;22.80;49.60;;;;;;1531540;76;687;-58
2023/05/19 09:35:08;;;;;;;;;;;22.80;49.60;;;;;;1547025;75;1484;-55
2023/05/19 09:37:11;;;;;;;;;;;22.80;49.70;;;;;;1530715;76;1206;-57
2023/05/19 09:39:14;;;;;;;;;;;22.80;49.70;;;;;;1540615;75;694;-57
2023/05/19 09:41:16;;;;;;;;;;;22.70;49.70;;;;;;1548881;75;658;-57
2023/05/19 09:43:18;;;;;;;;;;;22.70;49.70;;;;;;1549521;75;683;-58
2023/05/19 09:45:20;;;;;;;;;;;22.70;49.70;;;;;;1536645;75;716;-58
2023/05/19 09:47:21;;;;;;;;;;;22.70;49.70;;;;;;1548818;75;1142;-58
2023/05/19 09:49:24;;;;;;;;;;;22.70;49.70;;;;;;1552368;75;1477;-57
2023/05/19 09:51:26;;;;;;;;;;;22.70;49.70;;;;;;1542248;76;699;-57
2023/05/19 09:53:31;;;;;;;;;;;22.70;49.70;;;;;;1541721;75;718;-57
2023/05/19 09:55:34;;;;;;;;;;;22.80;49.70;;;;;;1539324;76;1334;-57
2023/05/19 09:57:36;;;;;;;;;;;22.80;49.60;;;;;;1549463;75;1130;-57
2023/05/19 09:59:38;;;;;;;;;;;22.80;49.70;;;;;;1535534;75;1936;-56
2023/05/19 10:01:40;;;;;;;;;;;22.80;49.70;;;;;;1535977;76;684;-55
2023/05/19 10:03:42;;;;;;;;;;;22.70;49.70;;;;;;1539892;75;1454;-57
2023/05/19 10:05:44;;;;;;;;;;;22.70;49.70;;;;;;1543126;75;701;-57
2023/05/19 10:07:50;;;;;;;;;;;22.70;49.70;;;;;;1553509;75;1139;-56
2023/05/19 10:09:52;;;;;;;;;;;22.70;49.70;;;;;;1542724;75;698;-58
2023/05/19 10:11:54;;;;;;;;;;;22.80;49.80;;;;;;1544082;76;596;-58
2023/05/19 10:13:56;;;;;;;;;;;22.70;49.80;;;;;;1544615;75;667;-55
2023/05/19 10:15:58;;;;;;;;;;;22.70;49.80;;;;;;1537796;76;690;-58
2023/05/19 10:18:00;;;;;;;;;;;22.70;49.80;;;;;;1543116;75;1513;-57
2023/05/19 10:20:02;;;;;;;;;;;22.70;49.90;;;;;;1547531;75;1931;-60
2023/05/19 10:22:04;;;;;;;;;;;22.70;49.80;;;;;;1545242;75;607;-58
2023/05/19 10:24:06;;;;;;;;;;;22.70;49.90;;;;;;1546555;75;682;-57
2023/05/19 10:26:08;;;;;;;;;;;22.70;49.90;;;;;;1544519;76;1128;-57
2023/05/19 10:28:13;;;;;;;;;;;22.60;49.90;;;;;;1535728;75;677;-57
2023/05/19 10:30:23;;;;;;;;;;;22.70;50.00;;;;;;1532997;76;645;-58
2023/05/19 10:32:26;;;;;;;;;;;22.60;50.00;;;;;;1524901;75;1389;-57
2023/05/19 10:34:41;;;;;;;;;;;22.60;49.90;;;;;;1548307;75;597;-55
2023/05/19 10:36:47;;;;;;;;;;;22.70;50.10;;;;;;1500517;78;1188;-57
2023/05/19 10:38:56;;;;;;;;;;;22.60;50.00;;;;;;1536968;76;625;-55
2023/05/19 10:41:00;;;;;;;;;;;22.60;50.00;;;;;;1524348;76;1939;-57
2023/05/19 10:43:20;;;;;;;;;;;22.60;50.10;;;;;;1538919;75;715;-57
2023/05/19 10:45:22;;;;;;;;;;;22.60;50.10;;;;;;1547459;76;747;-56
2023/05/19 10:47:24;;;;;;;;;;;22.60;50.10;;;;;;1525842;76;1593;-58
2023/05/19 10:49:26;;;;;;;;;;;22.60;50.10;;;;;;1545900;76;838;-56
2023/05/19 10:51:30;;;;;;;;;;;22.60;50.20;;;;;;1544417;76;691;-57
2023/05/19 10:53:33;;;;;;;;;;;22.50;50.20;;;;;;1532219;75;625;-56
2023/05/19 10:55:44;;;;;;;;;;;22.50;50.10;;;;;;1543847;75;744;-57
2023/05/19 10:57:59;;;;;;;;;;;22.60;50.10;;;;;;1534870;75;1083;-58
2023/05/19 11:00:10;;;;;;;;;;;22.60;50.20;;;;;;1539852;75;1931;-58
2023/05/19 11:02:13;;;;;;;;;;;22.50;50.20;;;;;;1537417;76;1827;-55
2023/05/19 11:04:15;;;;;;;;;;;22.50;50.20;;;;;;1528415;76;1626;-57
2023/05/19 11:06:19;;;;;;;;;;;22.50;50.20;;;;;;1529026;76;1170;-55
2023/05/19 11:08:22;;;;;;;;;;;22.50;50.30;;;;;;1541924;76;1686;-55
2023/05/19 11:10:24;;;;;;;;;;;22.40;50.20;;;;;;1536769;76;1393;-56
2023/05/19 11:12:26;;;;;;;;;;;22.50;50.30;;;;;;1542125;76;755;-57
2023/05/19 11:14:29;;;;;;;;;;;22.50;50.30;;;;;;1543184;75;1351;-57
2023/05/19 11:16:31;;;;;;;;;;;22.50;50.30;;;;;;1543206;76;1147;-57
2023/05/19 11:18:33;;;;;;;;;;;22.50;50.30;;;;;;1544388;75;696;-59
2023/05/19 11:20:36;;;;;;;;;;;22.50;50.20;;;;;;1539099;75;1946;-58
2023/05/19 11:22:38;;;;;;;;;;;22.50;50.20;;;;;;1522223;76;1187;-58
2023/05/19 11:24:53;;;;;;;;;;;22.60;50.20;;;;;;1522812;77;1219;-57
2023/05/19 11:26:52;;;;;;;;;;;22.50;50.20;;;;;;1535693;75;1390;-57
2023/05/19 11:28:54;;;;;;;;;;;22.50;50.30;;;;;;1519737;76;1398;-58
2023/05/19 11:31:00;;;;;;;;;;;22.50;50.30;;;;;;1533397;76;767;-56
2023/05/19 11:33:01;;;;;;;;;;;22.50;50.40;;;;;;1546643;75;1042;-58
2023/05/19 11:35:03;;;;;;;;;;;22.50;50.30;;;;;;1559964;75;675;-56
2023/05/19 11:37:08;;;;;;;;;;;22.50;50.40;;;;;;1545761;75;1218;-57
2023/05/19 11:39:10;;;;;;;;;;;22.40;50.20;;;;;;1557776;75;803;-55
2023/05/19 11:41:12;;;;;;;;;;;22.50;50.40;;;;;;1556335;75;1951;-57
2023/05/19 11:43:15;;;;;;;;;;;22.50;50.40;;;;;;1547729;75;1490;-57
2023/05/19 11:45:17;;;;;;;;;;;22.50;50.40;;;;;;1553623;75;671;-57
2023/05/19 11:47:19;;;;;;;;;;;22.50;50.40;;;;;;1551079;75;1180;-58
2023/05/19 11:49:20;;;;;;;;;;;22.50;50.40;;;;;;1528166;77;670;-55
2023/05/19 11:51:22;;;;;;;;;;;22.50;50.50;;;;;;1565519;75;721;-55
2023/05/19 11:53:24;;;;;;;;;;;22.50;50.50;;;;;;1554279;75;758;-57
2023/05/19 11:55:26;;;;;;;;;;;22.40;50.40;;;;;;1559122;75;656;-56
2023/05/19 11:57:28;;;;;;;;;;;22.40;50.40;;;;;;1553911;75;1445;-56
2023/05/19 11:59:31;;;;;;;;;;;22.40;50.30;;;;;;1550419;75;678;-56
2023/05/19 12:01:33;;;;;;;;;;;22.50;50.50;;;;;;1553466;75;1902;-56
2023/05/19 12:03:35;;;;;;;;;;;22.50;50.50;;;;;;1533921;75;789;-58
2023/05/19 12:05:38;;;;;;;;;;;22.40;50.40;;;;;;1552213;75;772;-55
2023/05/19 12:07:39;;;;;;;;;;;22.40;50.50;;;;;;1549173;75;1196;-57
2023/05/19 12:09:42;;;;;;;;;;;22.40;50.40;;;;;;1542140;75;697;-56
2023/05/19 12:11:44;;;;;;;;;;;22.40;50.40;;;;;;1554506;75;1588;-55